sensor_id;sensor_type;location;lat;lon;timestamp;P1;durP1;ratioP1;P2;durP2;ratioP2
31061;SDS011;17724;53.546;9.974;2023-05-07T00:00:36;13.73;;;9.83;;
31061;SDS011;17724;53.546;9.974;2023-05-07T00:04:57;12.57;;;8.53;;
31061;SDS011;17724;53.546;9.974;2023-05-07T00:09:18;13.80;;;9.70;;
31061;SDS011;17724;53.546;9.974;2023-05-07T00:13:39;12.37;;;8.57;;
31061;SDS011;17724;53.546;9.974;2023-05-07T00:18:00;14.47;;;10.30;;
31061;SDS011;17724;53.546;9.974;2023-05-07T00:22:20;13.30;;;9.10;;
31061;SDS011;17724;53.546;9.974;2023-05-07T00:26:41;14.67;;;9.30;;
31061;SDS011;17724;53.546;9.974;2023-05-07T00:31:02;12.73;;;8.60;;
31061;SDS011;17724;53.546;9.974;2023-05-07T00:35:23;13.73;;;9.33;;
31061;SDS011;17724;53.546;9.974;2023-05-07T00:39:44;12.17;;;8.70;;
31061;SDS011;17724;53.546;9.974;2023-05-07T00:44:05;12.83;;;9.17;;
31061;SDS011;17724;53.546;9.974;2023-05-07T00:48:26;12.40;;;8.30;;
31061;SDS011;17724;53.546;9.974;2023-05-07T00:52:47;12.37;;;8.33;;
31061;SDS011;17724;53.546;9.974;2023-05-07T00:57:09;13.60;;;8.40;;
31061;SDS011;17724;53.546;9.974;2023-05-07T01:01:31;12.30;;;7.67;;
31061;SDS011;17724;53.546;9.974;2023-05-07T01:05:52;11.93;;;8.17;;
31061;SDS011;17724;53.546;9.974;2023-05-07T01:10:15;12.50;;;8.20;;
31061;SDS011;17724;53.546;9.974;2023-05-07T01:14:37;12.23;;;8.20;;
31061;SDS011;17724;53.546;9.974;2023-05-07T01:18:58;14.53;;;8.70;;
31061;SDS011;17724;53.546;9.974;2023-05-07T01:23:20;11.93;;;8.40;;
31061;SDS011;17724;53.546;9.974;2023-05-07T01:27:41;11.83;;;8.13;;
31061;SDS011;17724;53.546;9.974;2023-05-07T01:32:02;9.80;;;6.50;;
31061;SDS011;17724;53.546;9.974;2023-05-07T01:36:23;10.77;;;6.90;;
31061;SDS011;17724;53.546;9.974;2023-05-07T01:40:47;11.27;;;7.00;;
31061;SDS011;17724;53.546;9.974;2023-05-07T01:45:08;11.33;;;7.73;;
31061;SDS011;17724;53.546;9.974;2023-05-07T01:49:30;11.40;;;7.50;;
31061;SDS011;17724;53.546;9.974;2023-05-07T01:53:51;12.00;;;7.40;;
31061;SDS011;17724;53.546;9.974;2023-05-07T01:58:14;10.33;;;7.03;;
31061;SDS011;17724;53.546;9.974;2023-05-07T02:02:35;11.70;;;6.73;;
31061;SDS011;17724;53.546;9.974;2023-05-07T02:06:56;10.63;;;6.93;;
31061;SDS011;17724;53.546;9.974;2023-05-07T02:11:23;10.33;;;6.60;;
31061;SDS011;17724;53.546;9.974;2023-05-07T02:15:45;11.47;;;7.13;;
31061;SDS011;17724;53.546;9.974;2023-05-07T02:20:09;12.23;;;7.93;;
31061;SDS011;17724;53.546;9.974;2023-05-07T02:24:34;10.53;;;7.03;;
31061;SDS011;17724;53.546;9.974;2023-05-07T02:28:55;13.67;;;7.63;;
31061;SDS011;17724;53.546;9.974;2023-05-07T02:33:16;12.60;;;7.77;;
31061;SDS011;17724;53.546;9.974;2023-05-07T02:37:37;12.67;;;8.63;;
31061;SDS011;17724;53.546;9.974;2023-05-07T02:41:58;12.13;;;8.27;;
31061;SDS011;17724;53.546;9.974;2023-05-07T02:46:19;11.63;;;7.90;;
31061;SDS011;17724;53.546;9.974;2023-05-07T02:50:44;12.60;;;8.40;;
31061;SDS011;17724;53.546;9.974;2023-05-07T02:55:07;11.90;;;7.50;;
31061;SDS011;17724;53.546;9.974;2023-05-07T02:59:29;12.37;;;8.00;;
31061;SDS011;17724;53.546;9.974;2023-05-07T03:03:50;12.90;;;9.23;;
31061;SDS011;17724;53.546;9.974;2023-05-07T03:08:11;12.13;;;8.13;;
31061;SDS011;17724;53.546;9.974;2023-05-07T03:12:32;12.80;;;8.53;;
31061;SDS011;17724;53.546;9.974;2023-05-07T03:16:53;13.10;;;8.20;;
31061;SDS011;17724;53.546;9.974;2023-05-07T03:21:14;12.93;;;8.30;;
31061;SDS011;17724;53.546;9.974;2023-05-07T03:25:35;12.93;;;8.63;;
31061;SDS011;17724;53.546;9.974;2023-05-07T03:29:56;13.33;;;8.80;;
31061;SDS011;17724;53.546;9.974;2023-05-07T03:34:17;13.50;;;8.83;;
31061;SDS011;17724;53.546;9.974;2023-05-07T03:38:42;13.00;;;8.93;;
31061;SDS011;17724;53.546;9.974;2023-05-07T03:43:03;12.50;;;8.50;;
31061;SDS011;17724;53.546;9.974;2023-05-07T03:47:26;12.60;;;8.57;;
31061;SDS011;17724;53.546;9.974;2023-05-07T03:51:47;11.97;;;8.40;;
31061;SDS011;17724;53.546;9.974;2023-05-07T03:56:10;12.03;;;8.20;;
31061;SDS011;17724;53.546;9.974;2023-05-07T04:00:33;13.37;;;9.00;;
31061;SDS011;17724;53.546;9.974;2023-05-07T04:05:03;12.47;;;8.47;;
31061;SDS011;17724;53.546;9.974;2023-05-07T04:09:25;13.07;;;9.23;;
31061;SDS011;17724;53.546;9.974;2023-05-07T04:13:46;12.47;;;8.60;;
31061;SDS011;17724;53.546;9.974;2023-05-07T04:18:07;11.87;;;7.77;;
31061;SDS011;17724;53.546;9.974;2023-05-07T04:22:29;12.90;;;8.00;;
31061;SDS011;17724;53.546;9.974;2023-05-07T04:26:50;11.87;;;8.10;;
31061;SDS011;17724;53.546;9.974;2023-05-07T04:31:16;12.40;;;7.97;;
31061;SDS011;17724;53.546;9.974;2023-05-07T04:35:44;12.50;;;7.70;;
31061;SDS011;17724;53.546;9.974;2023-05-07T04:40:05;11.97;;;8.60;;
31061;SDS011;17724;53.546;9.974;2023-05-07T04:44:27;11.57;;;7.60;;
31061;SDS011;17724;53.546;9.974;2023-05-07T04:48:49;12.57;;;7.80;;
31061;SDS011;17724;53.546;9.974;2023-05-07T04:53:10;12.50;;;8.77;;
31061;SDS011;17724;53.546;9.974;2023-05-07T04:57:31;12.50;;;7.60;;
31061;SDS011;17724;53.546;9.974;2023-05-07T05:01:52;11.57;;;7.50;;
31061;SDS011;17724;53.546;9.974;2023-05-07T05:06:13;11.40;;;7.33;;
31061;SDS011;17724;53.546;9.974;2023-05-07T05:10:34;11.20;;;7.63;;
31061;SDS011;17724;53.546;9.974;2023-05-07T05:14:55;12.73;;;7.70;;
31061;SDS011;17724;53.546;9.974;2023-05-07T05:19:16;12.30;;;7.37;;
31061;SDS011;17724;53.546;9.974;2023-05-07T05:23:38;14.07;;;7.97;;
31061;SDS011;17724;53.546;9.974;2023-05-07T05:28:00;11.97;;;7.77;;
31061;SDS011;17724;53.546;9.974;2023-05-07T05:32:22;11.87;;;7.50;;
31061;SDS011;17724;53.546;9.974;2023-05-07T05:36:45;12.30;;;7.97;;
31061;SDS011;17724;53.546;9.974;2023-05-07T05:41:07;11.90;;;7.93;;
31061;SDS011;17724;53.546;9.974;2023-05-07T05:45:38;11.07;;;6.90;;
31061;SDS011;17724;53.546;9.974;2023-05-07T05:50:02;11.40;;;7.40;;
31061;SDS011;17724;53.546;9.974;2023-05-07T05:54:23;11.50;;;7.00;;
31061;SDS011;17724;53.546;9.974;2023-05-07T05:58:44;11.50;;;7.27;;
31061;SDS011;17724;53.546;9.974;2023-05-07T06:03:05;12.30;;;8.50;;
31061;SDS011;17724;53.546;9.974;2023-05-07T06:07:26;11.73;;;8.43;;
31061;SDS011;17724;53.546;9.974;2023-05-07T06:11:47;11.73;;;8.30;;
31061;SDS011;17724;53.546;9.974;2023-05-07T06:16:09;12.30;;;7.90;;
31061;SDS011;17724;53.546;9.974;2023-05-07T06:20:31;11.83;;;8.10;;
31061;SDS011;17724;53.546;9.974;2023-05-07T06:24:54;11.13;;;7.30;;
31061;SDS011;17724;53.546;9.974;2023-05-07T06:29:15;11.37;;;6.90;;
31061;SDS011;17724;53.546;9.974;2023-05-07T06:33:37;13.30;;;7.33;;
31061;SDS011;17724;53.546;9.974;2023-05-07T06:37:59;11.40;;;7.60;;
31061;SDS011;17724;53.546;9.974;2023-05-07T06:42:22;11.53;;;7.47;;
31061;SDS011;17724;53.546;9.974;2023-05-07T06:46:44;12.33;;;7.63;;
31061;SDS011;17724;53.546;9.974;2023-05-07T06:51:06;11.40;;;7.70;;
31061;SDS011;17724;53.546;9.974;2023-05-07T06:55:27;12.20;;;7.07;;
31061;SDS011;17724;53.546;9.974;2023-05-07T06:59:49;12.27;;;7.50;;
31061;SDS011;17724;53.546;9.974;2023-05-07T07:04:10;13.07;;;8.00;;
31061;SDS011;17724;53.546;9.974;2023-05-07T07:08:32;12.20;;;7.73;;
31061;SDS011;17724;53.546;9.974;2023-05-07T07:12:54;12.20;;;7.03;;
31061;SDS011;17724;53.546;9.974;2023-05-07T07:17:16;10.67;;;6.77;;
31061;SDS011;17724;53.546;9.974;2023-05-07T07:21:37;10.07;;;6.60;;
31061;SDS011;17724;53.546;9.974;2023-05-07T07:25:58;10.10;;;6.17;;
31061;SDS011;17724;53.546;9.974;2023-05-07T07:30:21;11.43;;;6.60;;
31061;SDS011;17724;53.546;9.974;2023-05-07T07:34:43;11.10;;;6.53;;
31061;SDS011;17724;53.546;9.974;2023-05-07T07:39:04;10.80;;;5.90;;
31061;SDS011;17724;53.546;9.974;2023-05-07T07:43:25;13.57;;;6.97;;
31061;SDS011;17724;53.546;9.974;2023-05-07T07:47:47;10.73;;;6.50;;
31061;SDS011;17724;53.546;9.974;2023-05-07T07:52:08;10.87;;;6.30;;
31061;SDS011;17724;53.546;9.974;2023-05-07T07:56:32;11.10;;;6.10;;
31061;SDS011;17724;53.546;9.974;2023-05-07T08:00:57;10.67;;;6.23;;
31061;SDS011;17724;53.546;9.974;2023-05-07T08:05:19;9.57;;;5.53;;
31061;SDS011;17724;53.546;9.974;2023-05-07T08:09:41;10.73;;;6.83;;
31061;SDS011;17724;53.546;9.974;2023-05-07T08:14:04;13.10;;;7.80;;
31061;SDS011;17724;53.546;9.974;2023-05-07T08:18:26;11.57;;;6.90;;
31061;SDS011;17724;53.546;9.974;2023-05-07T08:22:49;10.70;;;7.20;;
31061;SDS011;17724;53.546;9.974;2023-05-07T08:27:10;9.27;;;6.10;;
31061;SDS011;17724;53.546;9.974;2023-05-07T08:31:32;10.10;;;6.10;;
31061;SDS011;17724;53.546;9.974;2023-05-07T08:35:53;10.50;;;7.20;;
31061;SDS011;17724;53.546;9.974;2023-05-07T08:40:14;9.97;;;6.23;;
31061;SDS011;17724;53.546;9.974;2023-05-07T08:44:36;9.57;;;6.00;;
31061;SDS011;17724;53.546;9.974;2023-05-07T08:48:59;10.10;;;6.70;;
31061;SDS011;17724;53.546;9.974;2023-05-07T08:53:21;11.00;;;6.50;;
31061;SDS011;17724;53.546;9.974;2023-05-07T08:57:43;14.43;;;7.53;;
31061;SDS011;17724;53.546;9.974;2023-05-07T09:02:05;10.40;;;6.90;;
31061;SDS011;17724;53.546;9.974;2023-05-07T09:06:29;11.00;;;6.83;;
31061;SDS011;17724;53.546;9.974;2023-05-07T09:10:51;10.90;;;6.73;;
31061;SDS011;17724;53.546;9.974;2023-05-07T09:15:13;11.00;;;6.93;;
31061;SDS011;17724;53.546;9.974;2023-05-07T09:19:34;9.90;;;5.20;;
31061;SDS011;17724;53.546;9.974;2023-05-07T09:23:58;10.47;;;6.83;;
31061;SDS011;17724;53.546;9.974;2023-05-07T09:28:27;10.07;;;6.43;;
31061;SDS011;17724;53.546;9.974;2023-05-07T09:32:48;10.30;;;5.90;;
31061;SDS011;17724;53.546;9.974;2023-05-07T09:37:13;10.70;;;7.03;;
31061;SDS011;17724;53.546;9.974;2023-05-07T09:41:43;9.37;;;5.70;;
31061;SDS011;17724;53.546;9.974;2023-05-07T09:46:25;9.77;;;5.90;;
31061;SDS011;17724;53.546;9.974;2023-05-07T09:50:52;10.13;;;6.47;;
31061;SDS011;17724;53.546;9.974;2023-05-07T09:55:22;9.20;;;5.60;;
31061;SDS011;17724;53.546;9.974;2023-05-07T09:59:46;11.60;;;6.97;;
31061;SDS011;17724;53.546;9.974;2023-05-07T10:04:11;10.20;;;6.60;;
31061;SDS011;17724;53.546;9.974;2023-05-07T10:08:33;10.23;;;6.40;;
31061;SDS011;17724;53.546;9.974;2023-05-07T10:12:56;11.70;;;6.53;;
31061;SDS011;17724;53.546;9.974;2023-05-07T10:17:24;11.57;;;7.47;;
31061;SDS011;17724;53.546;9.974;2023-05-07T10:21:50;9.60;;;5.83;;
31061;SDS011;17724;53.546;9.974;2023-05-07T10:26:20;12.50;;;8.47;;
31061;SDS011;17724;53.546;9.974;2023-05-07T10:30:58;11.70;;;5.40;;
31061;SDS011;17724;53.546;9.974;2023-05-07T10:35:40;9.83;;;5.80;;
31061;SDS011;17724;53.546;9.974;2023-05-07T10:40:04;9.80;;;6.03;;
31061;SDS011;17724;53.546;9.974;2023-05-07T10:44:28;11.63;;;6.97;;
31061;SDS011;17724;53.546;9.974;2023-05-07T10:53:31;8.87;;;5.40;;
31061;SDS011;17724;53.546;9.974;2023-05-07T11:03:04;8.90;;;4.53;;
31061;SDS011;17724;53.546;9.974;2023-05-07T11:07:41;10.10;;;5.27;;
31061;SDS011;17724;53.546;9.974;2023-05-07T11:17:02;9.50;;;5.63;;
31061;SDS011;17724;53.546;9.974;2023-05-07T11:21:40;9.70;;;5.30;;
31061;SDS011;17724;53.546;9.974;2023-05-07T11:26:20;10.27;;;7.13;;
31061;SDS011;17724;53.546;9.974;2023-05-07T11:30:43;9.70;;;5.53;;
31061;SDS011;17724;53.546;9.974;2023-05-07T11:35:11;9.00;;;5.60;;
31061;SDS011;17724;53.546;9.974;2023-05-07T11:39:33;9.60;;;5.50;;
31061;SDS011;17724;53.546;9.974;2023-05-07T11:43:56;8.67;;;5.00;;
31061;SDS011;17724;53.546;9.974;2023-05-07T11:48:18;9.90;;;6.20;;
31061;SDS011;17724;53.546;9.974;2023-05-07T11:52:49;11.00;;;5.23;;
31061;SDS011;17724;53.546;9.974;2023-05-07T11:57:15;11.47;;;5.03;;
31061;SDS011;17724;53.546;9.974;2023-05-07T12:01:36;9.80;;;5.50;;
31061;SDS011;17724;53.546;9.974;2023-05-07T12:05:57;9.33;;;5.10;;
31061;SDS011;17724;53.546;9.974;2023-05-07T12:10:20;10.13;;;4.77;;
31061;SDS011;17724;53.546;9.974;2023-05-07T12:14:41;9.37;;;4.90;;
31061;SDS011;17724;53.546;9.974;2023-05-07T12:19:03;9.60;;;5.50;;
31061;SDS011;17724;53.546;9.974;2023-05-07T12:23:24;10.07;;;5.10;;
31061;SDS011;17724;53.546;9.974;2023-05-07T12:27:45;8.40;;;4.37;;
31061;SDS011;17724;53.546;9.974;2023-05-07T12:32:19;9.60;;;5.70;;
31061;SDS011;17724;53.546;9.974;2023-05-07T12:36:41;9.53;;;4.57;;
31061;SDS011;17724;53.546;9.974;2023-05-07T12:41:02;8.03;;;4.03;;
31061;SDS011;17724;53.546;9.974;2023-05-07T12:45:23;9.80;;;4.80;;
31061;SDS011;17724;53.546;9.974;2023-05-07T12:49:46;8.50;;;4.03;;
31061;SDS011;17724;53.546;9.974;2023-05-07T12:54:07;9.57;;;5.40;;
31061;SDS011;17724;53.546;9.974;2023-05-07T12:58:29;11.00;;;4.43;;
31061;SDS011;17724;53.546;9.974;2023-05-07T13:02:51;7.83;;;3.50;;
31061;SDS011;17724;53.546;9.974;2023-05-07T13:07:14;9.10;;;3.70;;
31061;SDS011;17724;53.546;9.974;2023-05-07T13:11:35;8.20;;;3.93;;
31061;SDS011;17724;53.546;9.974;2023-05-07T13:15:56;10.87;;;4.97;;
31061;SDS011;17724;53.546;9.974;2023-05-07T13:20:17;8.20;;;3.73;;
31061;SDS011;17724;53.546;9.974;2023-05-07T13:24:37;9.07;;;3.87;;
31061;SDS011;17724;53.546;9.974;2023-05-07T13:29:02;8.70;;;3.93;;
31061;SDS011;17724;53.546;9.974;2023-05-07T13:33:22;8.53;;;4.23;;
31061;SDS011;17724;53.546;9.974;2023-05-07T13:37:44;8.40;;;3.90;;
31061;SDS011;17724;53.546;9.974;2023-05-07T13:42:05;8.13;;;3.90;;
31061;SDS011;17724;53.546;9.974;2023-05-07T13:46:26;8.10;;;3.27;;
31061;SDS011;17724;53.546;9.974;2023-05-07T13:50:47;15.13;;;3.90;;
31061;SDS011;17724;53.546;9.974;2023-05-07T13:55:08;9.03;;;3.60;;
31061;SDS011;17724;53.546;9.974;2023-05-07T13:59:33;8.23;;;3.40;;
31061;SDS011;17724;53.546;9.974;2023-05-07T14:03:56;7.57;;;3.30;;
31061;SDS011;17724;53.546;9.974;2023-05-07T14:08:20;7.33;;;2.90;;
31061;SDS011;17724;53.546;9.974;2023-05-07T14:12:41;7.27;;;2.60;;
31061;SDS011;17724;53.546;9.974;2023-05-07T14:17:02;10.33;;;5.93;;
31061;SDS011;17724;53.546;9.974;2023-05-07T14:21:23;8.10;;;3.63;;
31061;SDS011;17724;53.546;9.974;2023-05-07T14:25:46;7.13;;;2.97;;
31061;SDS011;17724;53.546;9.974;2023-05-07T14:30:08;8.63;;;3.33;;
31061;SDS011;17724;53.546;9.974;2023-05-07T14:34:32;8.03;;;3.87;;
31061;SDS011;17724;53.546;9.974;2023-05-07T14:38:53;7.20;;;2.30;;
31061;SDS011;17724;53.546;9.974;2023-05-07T14:43:15;8.63;;;2.70;;
31061;SDS011;17724;53.546;9.974;2023-05-07T14:47:36;10.80;;;5.50;;
31061;SDS011;17724;53.546;9.974;2023-05-07T14:51:57;8.37;;;3.00;;
31061;SDS011;17724;53.546;9.974;2023-05-07T14:56:20;8.70;;;2.67;;
31061;SDS011;17724;53.546;9.974;2023-05-07T15:00:42;6.80;;;2.23;;
31061;SDS011;17724;53.546;9.974;2023-05-07T15:05:08;9.03;;;3.17;;
31061;SDS011;17724;53.546;9.974;2023-05-07T15:09:29;8.03;;;2.80;;
31061;SDS011;17724;53.546;9.974;2023-05-07T15:13:52;7.60;;;2.90;;
31061;SDS011;17724;53.546;9.974;2023-05-07T15:18:14;8.10;;;3.20;;
31061;SDS011;17724;53.546;9.974;2023-05-07T15:22:35;7.20;;;2.60;;
31061;SDS011;17724;53.546;9.974;2023-05-07T15:26:57;7.67;;;2.60;;
31061;SDS011;17724;53.546;9.974;2023-05-07T15:31:26;7.10;;;2.70;;
31061;SDS011;17724;53.546;9.974;2023-05-07T15:35:47;9.17;;;3.83;;
31061;SDS011;17724;53.546;9.974;2023-05-07T15:40:08;8.70;;;3.33;;
31061;SDS011;17724;53.546;9.974;2023-05-07T15:44:29;7.40;;;2.97;;
31061;SDS011;17724;53.546;9.974;2023-05-07T15:48:54;8.17;;;2.97;;
31061;SDS011;17724;53.546;9.974;2023-05-07T15:53:16;7.30;;;2.80;;
31061;SDS011;17724;53.546;9.974;2023-05-07T15:57:36;11.53;;;5.60;;
31061;SDS011;17724;53.546;9.974;2023-05-07T16:01:57;8.17;;;3.57;;
31061;SDS011;17724;53.546;9.974;2023-05-07T16:06:18;9.23;;;4.00;;
31061;SDS011;17724;53.546;9.974;2023-05-07T16:10:39;8.60;;;3.30;;
31061;SDS011;17724;53.546;9.974;2023-05-07T16:15:00;8.30;;;3.77;;
31061;SDS011;17724;53.546;9.974;2023-05-07T16:19:20;9.33;;;4.90;;
31061;SDS011;17724;53.546;9.974;2023-05-07T16:23:42;9.73;;;3.40;;
31061;SDS011;17724;53.546;9.974;2023-05-07T16:28:03;8.87;;;4.40;;
31061;SDS011;17724;53.546;9.974;2023-05-07T16:32:24;9.50;;;4.80;;
31061;SDS011;17724;53.546;9.974;2023-05-07T16:36:47;8.90;;;4.60;;
31061;SDS011;17724;53.546;9.974;2023-05-07T16:41:08;9.87;;;3.20;;
31061;SDS011;17724;53.546;9.974;2023-05-07T16:45:29;9.80;;;4.50;;
31061;SDS011;17724;53.546;9.974;2023-05-07T16:49:50;15.13;;;10.20;;
31061;SDS011;17724;53.546;9.974;2023-05-07T16:54:11;9.10;;;4.47;;
31061;SDS011;17724;53.546;9.974;2023-05-07T16:58:32;8.70;;;4.13;;
31061;SDS011;17724;53.546;9.974;2023-05-07T17:02:53;7.80;;;2.37;;
31061;SDS011;17724;53.546;9.974;2023-05-07T17:07:15;10.73;;;7.40;;
31061;SDS011;17724;53.546;9.974;2023-05-07T17:11:36;9.40;;;4.20;;
31061;SDS011;17724;53.546;9.974;2023-05-07T17:15:57;10.00;;;3.47;;
31061;SDS011;17724;53.546;9.974;2023-05-07T17:20:17;9.57;;;4.90;;
31061;SDS011;17724;53.546;9.974;2023-05-07T17:24:38;8.37;;;3.57;;
31061;SDS011;17724;53.546;9.974;2023-05-07T17:28:59;8.80;;;3.90;;
31061;SDS011;17724;53.546;9.974;2023-05-07T17:33:20;8.23;;;3.67;;
31061;SDS011;17724;53.546;9.974;2023-05-07T17:37:41;8.57;;;3.40;;
31061;SDS011;17724;53.546;9.974;2023-05-07T17:42:06;8.73;;;3.23;;
31061;SDS011;17724;53.546;9.974;2023-05-07T17:46:27;8.00;;;2.90;;
31061;SDS011;17724;53.546;9.974;2023-05-07T17:50:48;7.30;;;2.73;;
31061;SDS011;17724;53.546;9.974;2023-05-07T17:55:08;8.00;;;3.53;;
31061;SDS011;17724;53.546;9.974;2023-05-07T17:59:29;7.20;;;3.20;;
31061;SDS011;17724;53.546;9.974;2023-05-07T18:03:50;9.30;;;2.60;;
31061;SDS011;17724;53.546;9.974;2023-05-07T18:08:11;9.63;;;3.43;;
31061;SDS011;17724;53.546;9.974;2023-05-07T18:12:32;7.63;;;2.83;;
31061;SDS011;17724;53.546;9.974;2023-05-07T18:16:53;7.20;;;2.60;;
31061;SDS011;17724;53.546;9.974;2023-05-07T18:21:14;7.90;;;2.30;;
31061;SDS011;17724;53.546;9.974;2023-05-07T18:25:38;9.30;;;3.53;;
31061;SDS011;17724;53.546;9.974;2023-05-07T18:29:58;7.93;;;3.63;;
31061;SDS011;17724;53.546;9.974;2023-05-07T18:34:19;8.00;;;3.03;;
31061;SDS011;17724;53.546;9.974;2023-05-07T18:38:40;8.67;;;2.80;;
31061;SDS011;17724;53.546;9.974;2023-05-07T18:43:02;9.57;;;3.50;;
31061;SDS011;17724;53.546;9.974;2023-05-07T18:47:26;9.63;;;5.00;;
31061;SDS011;17724;53.546;9.974;2023-05-07T18:51:47;8.33;;;3.37;;
31061;SDS011;17724;53.546;9.974;2023-05-07T18:56:09;7.47;;;3.10;;
31061;SDS011;17724;53.546;9.974;2023-05-07T19:00:29;8.37;;;3.10;;
31061;SDS011;17724;53.546;9.974;2023-05-07T19:04:50;9.20;;;4.30;;
31061;SDS011;17724;53.546;9.974;2023-05-07T19:09:11;9.70;;;4.53;;
31061;SDS011;17724;53.546;9.974;2023-05-07T19:13:32;7.97;;;3.10;;
31061;SDS011;17724;53.546;9.974;2023-05-07T19:17:53;8.77;;;3.90;;
31061;SDS011;17724;53.546;9.974;2023-05-07T19:22:14;6.80;;;2.53;;
31061;SDS011;17724;53.546;9.974;2023-05-07T19:26:35;9.33;;;4.03;;
31061;SDS011;17724;53.546;9.974;2023-05-07T19:30:56;8.00;;;3.03;;
31061;SDS011;17724;53.546;9.974;2023-05-07T19:35:17;9.50;;;2.43;;
31061;SDS011;17724;53.546;9.974;2023-05-07T19:39:38;8.30;;;2.93;;
31061;SDS011;17724;53.546;9.974;2023-05-07T19:43:59;10.00;;;3.40;;
31061;SDS011;17724;53.546;9.974;2023-05-07T19:48:20;8.17;;;2.40;;
31061;SDS011;17724;53.546;9.974;2023-05-07T19:52:41;12.70;;;3.90;;
31061;SDS011;17724;53.546;9.974;2023-05-07T19:57:02;9.23;;;4.07;;
31061;SDS011;17724;53.546;9.974;2023-05-07T20:01:23;8.50;;;4.00;;
31061;SDS011;17724;53.546;9.974;2023-05-07T20:05:47;9.67;;;5.07;;
31061;SDS011;17724;53.546;9.974;2023-05-07T20:10:08;8.20;;;4.30;;
31061;SDS011;17724;53.546;9.974;2023-05-07T20:14:29;8.83;;;4.20;;
31061;SDS011;17724;53.546;9.974;2023-05-07T20:18:51;8.90;;;2.93;;
31061;SDS011;17724;53.546;9.974;2023-05-07T20:23:12;7.17;;;2.73;;
31061;SDS011;17724;53.546;9.974;2023-05-07T20:27:33;8.37;;;3.20;;
31061;SDS011;17724;53.546;9.974;2023-05-07T20:31:54;7.97;;;2.80;;
31061;SDS011;17724;53.546;9.974;2023-05-07T20:36:15;7.90;;;3.33;;
31061;SDS011;17724;53.546;9.974;2023-05-07T20:40:36;7.70;;;2.90;;
31061;SDS011;17724;53.546;9.974;2023-05-07T20:44:57;8.20;;;3.13;;
31061;SDS011;17724;53.546;9.974;2023-05-07T20:49:18;7.33;;;2.60;;
31061;SDS011;17724;53.546;9.974;2023-05-07T20:53:43;7.70;;;2.20;;
31061;SDS011;17724;53.546;9.974;2023-05-07T20:58:04;7.20;;;2.50;;
31061;SDS011;17724;53.546;9.974;2023-05-07T21:02:25;7.30;;;2.30;;
31061;SDS011;17724;53.546;9.974;2023-05-07T21:06:46;7.90;;;2.70;;
31061;SDS011;17724;53.546;9.974;2023-05-07T21:11:07;8.00;;;2.67;;
31061;SDS011;17724;53.546;9.974;2023-05-07T21:15:29;11.97;;;2.80;;
31061;SDS011;17724;53.546;9.974;2023-05-07T21:19:50;7.87;;;2.60;;
31061;SDS011;17724;53.546;9.974;2023-05-07T21:24:11;7.37;;;2.43;;
31061;SDS011;17724;53.546;9.974;2023-05-07T21:28:32;7.53;;;2.50;;
31061;SDS011;17724;53.546;9.974;2023-05-07T21:32:53;7.97;;;2.50;;
31061;SDS011;17724;53.546;9.974;2023-05-07T21:37:15;8.40;;;2.37;;
31061;SDS011;17724;53.546;9.974;2023-05-07T21:41:36;7.47;;;2.67;;
31061;SDS011;17724;53.546;9.974;2023-05-07T21:45:57;7.20;;;2.33;;
31061;SDS011;17724;53.546;9.974;2023-05-07T21:50:18;7.83;;;2.50;;
31061;SDS011;17724;53.546;9.974;2023-05-07T21:54:41;10.27;;;2.80;;
31061;SDS011;17724;53.546;9.974;2023-05-07T21:59:02;6.90;;;2.50;;
31061;SDS011;17724;53.546;9.974;2023-05-07T22:03:23;8.57;;;3.13;;
31061;SDS011;17724;53.546;9.974;2023-05-07T22:07:44;8.90;;;2.40;;
31061;SDS011;17724;53.546;9.974;2023-05-07T22:12:05;7.70;;;2.40;;
31061;SDS011;17724;53.546;9.974;2023-05-07T22:16:26;7.60;;;2.73;;
31061;SDS011;17724;53.546;9.974;2023-05-07T22:20:49;7.63;;;2.77;;
31061;SDS011;17724;53.546;9.974;2023-05-07T22:25:10;7.33;;;2.57;;
31061;SDS011;17724;53.546;9.974;2023-05-07T22:29:31;7.10;;;2.47;;
31061;SDS011;17724;53.546;9.974;2023-05-07T22:33:52;7.70;;;2.67;;
31061;SDS011;17724;53.546;9.974;2023-05-07T22:38:13;11.03;;;2.97;;
31061;SDS011;17724;53.546;9.974;2023-05-07T22:42:34;6.87;;;2.37;;
31061;SDS011;17724;53.546;9.974;2023-05-07T22:46:55;7.73;;;2.90;;
31061;SDS011;17724;53.546;9.974;2023-05-07T22:51:15;7.50;;;2.70;;
31061;SDS011;17724;53.546;9.974;2023-05-07T22:55:36;7.67;;;3.00;;
31061;SDS011;17724;53.546;9.974;2023-05-07T22:59:57;8.33;;;3.40;;
31061;SDS011;17724;53.546;9.974;2023-05-07T23:04:19;7.77;;;3.10;;
31061;SDS011;17724;53.546;9.974;2023-05-07T23:08:40;7.53;;;2.70;;
31061;SDS011;17724;53.546;9.974;2023-05-07T23:13:00;7.90;;;3.40;;
31061;SDS011;17724;53.546;9.974;2023-05-07T23:17:22;7.57;;;2.67;;
31061;SDS011;17724;53.546;9.974;2023-05-07T23:21:43;7.53;;;3.10;;
31061;SDS011;17724;53.546;9.974;2023-05-07T23:26:03;7.43;;;3.00;;
31061;SDS011;17724;53.546;9.974;2023-05-07T23:30:24;7.00;;;2.70;;
31061;SDS011;17724;53.546;9.974;2023-05-07T23:34:48;8.20;;;3.57;;
31061;SDS011;17724;53.546;9.974;2023-05-07T23:39:10;7.87;;;3.03;;
31061;SDS011;17724;53.546;9.974;2023-05-07T23:43:30;7.43;;;3.27;;
31061;SDS011;17724;53.546;9.974;2023-05-07T23:47:51;7.17;;;2.90;;
31061;SDS011;17724;53.546;9.974;2023-05-07T23:52:12;7.60;;;2.97;;
31061;SDS011;17724;53.546;9.974;2023-05-07T23:56:33;8.00;;;2.93;;
